createdAt,value
2018-12-07T00:12:26.064Z,1.03
2018-12-07T00:33:01.028Z,1.20
2018-12-07T00:53:36.541Z,1.00
2018-12-07T01:14:11.369Z,1.00
2018-12-07T01:34:49.611Z,1.10
2018-12-07T01:55:28.263Z,1.63
2018-12-07T02:16:06.553Z,1.53
2018-12-07T02:36:41.471Z,1.80
2018-12-07T02:57:15.618Z,1.53
2018-12-07T03:17:54.272Z,1.73
2018-12-07T03:38:32.107Z,2.27
2018-12-07T03:59:08.772Z,3.23
2018-12-07T04:19:42.992Z,4.17
2018-12-07T04:40:21.253Z,3.60
2018-12-07T05:00:57.572Z,2.87
2018-12-07T05:21:33.737Z,2.10
2018-12-07T05:42:12.953Z,2.17
2018-12-07T06:02:49.147Z,2.00
2018-12-07T06:23:25.345Z,1.93
2018-12-07T06:44:00.307Z,1.77
2018-12-07T07:04:38.964Z,1.90
2018-12-07T07:25:17.200Z,1.50
2018-12-07T07:45:52.164Z,2.07
2018-12-07T08:06:27.540Z,1.83
2018-12-07T08:27:04.553Z,2.07
2018-12-07T08:47:44.217Z,3.80
2018-12-07T09:08:21.472Z,2.30
2018-12-07T09:28:59.695Z,2.00
2018-12-07T09:49:33.833Z,1.70
2018-12-07T10:10:10.845Z,1.80
2018-12-07T10:30:47.042Z,1.30
2018-12-07T10:51:24.464Z,1.20
2018-12-07T11:12:04.754Z,1.40
2018-12-07T11:33:49.893Z,1.37
2018-12-07T11:54:24.727Z,1.27
2018-12-07T12:15:01.330Z,1.30
2018-12-07T13:17:30.465Z,1.13
2018-12-07T13:38:06.718Z,1.20
2018-12-07T13:58:45.895Z,0.90
2018-12-07T14:19:21.937Z,1.10
2018-12-07T14:40:00.220Z,1.13
2018-12-07T15:00:35.758Z,1.00
2018-12-07T15:21:10.928Z,1.10
2018-12-07T15:41:49.395Z,1.07
2018-12-07T16:02:27.417Z,1.10
2018-12-07T16:23:14.831Z,1.20
2018-12-07T16:43:52.111Z,1.50
2018-12-07T17:04:28.260Z,1.17
2018-12-07T17:25:05.588Z,1.67
2018-12-07T17:45:40.916Z,1.13
2018-12-07T18:06:17.044Z,1.37
2018-12-07T18:26:57.963Z,1.33
2018-12-07T18:47:34.639Z,0.70
2018-12-07T19:08:10.786Z,0.80
2018-12-07T19:28:51.047Z,1.20
2018-12-07T19:49:25.418Z,1.40
2018-12-07T20:09:59.683Z,1.50
2018-12-07T20:30:39.095Z,1.80
2018-12-07T20:51:17.954Z,1.30
2018-12-07T21:12:03.272Z,1.87
2018-12-07T21:32:40.494Z,2.30
2018-12-07T21:53:16.839Z,1.70
2018-12-07T22:13:56.980Z,2.53
2018-12-07T22:34:33.170Z,1.40
2018-12-07T22:55:10.671Z,1.70
2018-12-07T23:15:44.742Z,1.60
2018-12-07T23:36:20.939Z,1.53
2018-12-07T23:56:58.360Z,1.90
